Time;durP1;ratioP1;P1;durP2;ratioP2;P2;SDS_P1;SDS_P2;PMS_P1;PMS_P2;Temp;Humidity;BMP_temperature;BMP_pressure;BME280_temperature;BME280_humidity;BME280_pressure;Samples;Min_cycle;Max_cycle;Signal;HPM_P1;HPM_P2
2022/04/17 00:00:38;;;;;;;15.68;7.00;;;;;;;3.00;54.59;94843.19;5028594;28;20041;-49
2022/04/17 00:03:06;;;;;;;11.40;6.60;;;;;;;3.03;55.50;94830.84;5030243;28;20052;-46
2022/04/17 00:05:36;;;;;;;12.67;6.87;;;;;;;2.93;55.47;94834.03;5029613;28;20056;-46
2022/04/17 00:08:03;;;;;;;12.07;6.28;;;;;;;2.92;55.91;94821.63;5029992;28;20038;-50
2022/04/17 00:10:31;;;;;;;12.65;6.78;;;;;;;2.87;55.87;94824.59;5029739;28;20430;-46
2022/04/17 00:12:58;;;;;;;12.32;6.45;;;;;;;2.93;56.00;94831.34;5030253;28;20037;-49
2022/04/17 00:15:24;;;;;;;11.77;6.78;;;;;;;2.91;56.12;94820.03;5029275;28;20445;-48
2022/04/17 00:17:51;;;;;;;12.57;7.17;;;;;;;2.83;56.38;94807.44;5030532;28;20041;-46
2022/04/17 00:20:18;;;;;;;13.43;6.85;;;;;;;2.81;56.61;94799.63;5033131;28;20052;-51
2022/04/17 00:22:45;;;;;;;12.65;6.97;;;;;;;2.85;56.93;94797.81;5033545;28;20060;-52
2022/04/17 00:25:12;;;;;;;13.50;7.70;;;;;;;2.73;57.65;94792.44;5033965;28;20111;-47
2022/04/17 00:27:39;;;;;;;12.60;6.97;;;;;;;2.71;58.17;94779.22;5032975;28;21591;-48
2022/04/17 00:30:07;;;;;;;12.47;7.27;;;;;;;2.74;57.90;94781.25;5033516;28;20045;-51
2022/04/17 00:32:36;;;;;;;12.90;6.82;;;;;;;2.79;58.21;94786.41;5032914;28;20061;-50
2022/04/17 00:35:04;;;;;;;12.52;7.28;;;;;;;2.69;59.55;94788.84;5033762;28;20080;-49
2022/04/17 00:37:31;;;;;;;12.85;7.53;;;;;;;2.76;59.29;94784.41;5032702;28;20054;-53
2022/04/17 00:39:58;;;;;;;14.07;7.35;;;;;;;2.75;59.66;94780.09;5033631;28;20045;-50
2022/04/17 00:42:25;;;;;;;12.57;7.07;;;;;;;2.77;60.06;94790.59;5033034;28;20049;-52
2022/04/17 00:44:52;;;;;;;13.52;7.40;;;;;;;2.72;60.96;94786.22;5026106;28;20049;-47
2022/04/17 00:47:20;;;;;;;14.45;7.90;;;;;;;2.67;60.86;94788.38;5057198;28;20047;-51
2022/04/17 00:49:47;;;;;;;12.80;7.03;;;;;;;2.63;61.18;94790.19;5028795;28;20449;-50
2022/04/17 00:52:14;;;;;;;13.90;7.80;;;;;;;2.63;61.02;94779.38;5013348;28;20052;-46
2022/04/17 00:54:45;;;;;;;13.60;7.70;;;;;;;2.57;60.14;94773.38;5013635;28;20505;-47
2022/04/17 00:57:15;;;;;;;12.75;7.20;;;;;;;2.60;59.78;94776.22;5013378;28;20048;-47
2022/04/17 00:59:44;;;;;;;12.90;7.15;;;;;;;2.65;59.29;94780.59;5012388;28;20046;-54
2022/04/17 01:02:14;;;;;;;12.75;6.90;;;;;;;2.66;58.51;94768.63;5013417;28;20058;-47
2022/04/17 01:04:42;;;;;;;14.73;7.15;;;;;;;2.64;58.62;94775.53;5012300;28;20406;-53
2022/04/17 01:07:10;;;;;;;12.53;7.03;;;;;;;2.48;59.20;94773.53;5017377;28;20049;-55
2022/04/17 01:09:38;;;;;;;13.52;6.75;;;;;;;2.51;58.63;94778.25;5032505;28;20107;-47
2022/04/17 01:12:10;;;;;;;11.68;6.47;;;;;;;2.44;58.81;94774.56;5033008;28;20053;-52
2022/04/17 01:14:38;;;;;;;15.32;8.18;;;;;;;2.41;58.93;94762.47;5032168;28;20041;-49
2022/04/17 01:17:06;;;;;;;12.52;7.07;;;;;;;2.45;58.43;94771.50;5032963;28;20064;-48
2022/04/17 01:19:38;;;;;;;13.20;7.83;;;;;;;2.42;57.32;94763.28;5032215;28;20056;-54
2022/04/17 01:22:10;;;;;;;11.40;6.70;;;;;;;2.50;57.31;94755.00;5032281;28;20053;-47
2022/04/17 01:27:24;;;;;;;13.65;6.75;;;;;;;2.40;57.02;94755.50;5032244;28;20072;-53
2022/04/17 01:29:51;;;;;;;12.25;6.60;;;;;;;2.37;57.34;94754.28;5031670;28;20037;-47
2022/04/17 01:32:18;;;;;;;12.00;6.73;;;;;;;2.41;57.24;94743.50;5032169;28;20051;-48
2022/04/17 01:34:45;;;;;;;10.70;6.20;;;;;;;2.41;57.52;94746.22;5032551;28;20041;-48
2022/04/17 01:37:13;;;;;;;11.70;6.22;;;;;;;2.45;56.88;94749.03;5032595;28;20049;-50
2022/04/17 01:39:40;;;;;;;11.45;6.07;;;;;;;2.48;56.61;94751.88;5031265;28;20597;-48
2022/04/17 01:42:08;;;;;;;11.02;6.43;;;;;;;2.46;56.90;94745.22;5032189;28;20075;-51
2022/04/17 01:44:34;;;;;;;11.47;6.13;;;;;;;2.39;57.41;94741.16;5031502;28;20049;-54
2022/04/17 01:47:02;;;;;;;10.52;5.97;;;;;;;2.36;56.73;94741.84;5027288;28;20060;-46
2022/04/17 01:49:29;;;;;;;11.07;5.85;;;;;;;2.28;57.31;94745.47;5016678;28;20507;-47
2022/04/17 01:51:57;;;;;;;12.02;6.38;;;;;;;2.24;57.38;94749.22;5012481;28;20042;-46
2022/04/17 01:54:25;;;;;;;20.67;11.68;;;;;;;2.26;57.50;94755.09;5011807;28;20077;-47
2022/04/17 01:56:52;;;;;;;28.97;15.13;;;;;;;2.27;56.84;94749.31;5012274;28;20038;-50
2022/04/17 01:59:22;;;;;;;11.77;6.53;;;;;;;2.29;56.30;94732.72;5011377;28;20050;-49
2022/04/17 02:01:49;;;;;;;11.98;6.00;;;;;;;2.19;56.84;94736.69;5011876;28;20067;-47
2022/04/17 02:04:17;;;;;;;9.60;5.57;;;;;;;2.24;56.56;94739.16;5011742;28;20123;-54
2022/04/17 02:06:44;;;;;;;9.40;5.22;;;;;;;2.22;56.34;94736.00;5012810;28;20049;-55
2022/04/17 02:09:13;;;;;;;11.13;5.90;;;;;;;2.20;56.06;94738.28;5030395;28;20075;-50
2022/04/17 02:11:42;;;;;;;10.15;5.60;;;;;;;2.18;56.08;94733.19;5031074;28;21715;-50
2022/04/17 02:14:09;;;;;;;9.07;5.35;;;;;;;2.15;55.96;94733.91;5031713;28;20401;-48
2022/04/17 02:16:37;;;;;;;11.77;5.93;;;;;;;2.15;55.69;94743.91;5031065;28;20045;-53
2022/04/17 02:19:04;;;;;;;9.77;6.32;;;;;;;2.12;55.44;94737.28;5031561;28;20495;-49
2022/04/17 02:21:31;;;;;;;9.13;5.23;;;;;;;2.16;55.30;94730.03;5031269;28;20041;-50
2022/04/17 02:24:00;;;;;;;9.52;5.35;;;;;;;2.16;55.51;94730.03;5031475;28;20717;-48
2022/04/17 02:26:27;;;;;;;10.07;5.55;;;;;;;2.13;55.41;94721.81;5030832;28;20538;-48
2022/04/17 02:28:58;;;;;;;10.15;5.43;;;;;;;2.11;55.05;94726.78;5031256;28;20045;-47
2022/04/17 02:31:26;;;;;;;9.00;5.43;;;;;;;2.10;55.10;94725.22;5030885;28;20094;-57
2022/04/17 02:33:53;;;;;;;8.47;5.30;;;;;;;2.02;54.88;94720.72;5031591;28;20045;-50
2022/04/17 02:36:20;;;;;;;9.50;4.68;;;;;;;1.98;54.75;94720.59;5030912;28;20042;-47
2022/04/17 02:38:47;;;;;;;9.32;4.93;;;;;;;2.00;55.00;94710.22;5031173;28;20052;-46
2022/04/17 02:41:14;;;;;;;9.57;4.93;;;;;;;1.92;54.92;94719.25;5030642;28;20053;-46
2022/04/17 02:43:41;;;;;;;15.57;7.68;;;;;;;1.99;55.16;94711.34;5031151;28;20033;-49
2022/04/17 02:46:08;;;;;;;8.93;5.50;;;;;;;1.83;55.09;94710.47;5031158;28;20049;-52
2022/04/17 02:48:35;;;;;;;9.10;4.78;;;;;;;1.90;54.38;94713.41;5019485;28;20072;-49
2022/04/17 02:51:02;;;;;;;9.32;5.35;;;;;;;1.94;54.51;94708.88;5026631;28;20049;-50
2022/04/17 02:53:32;;;;;;;9.20;5.03;;;;;;;1.84;55.21;94701.22;5030597;28;20116;-46
2022/04/17 02:56:00;;;;;;;10.63;5.20;;;;;;;1.89;54.73;94703.69;5030777;28;20067;-46
2022/04/17 02:58:27;;;;;;;9.67;5.10;;;;;;;1.82;55.36;94692.66;5030173;28;20124;-48
2022/04/17 03:06:25;;;;;;;9.10;4.75;;;;;;;1.68;56.03;94698.41;5030401;28;20049;-51
2022/04/17 03:08:52;;;;;;;9.05;5.18;;;;;;;1.67;56.27;94702.25;5030656;28;20041;-50
2022/04/17 03:11:19;;;;;;;10.27;5.07;;;;;;;1.69;55.95;94703.50;5030316;28;20475;-46
2022/04/17 03:13:45;;;;;;;9.43;5.35;;;;;;;1.58;56.75;94705.06;5030503;28;20049;-50
2022/04/17 03:16:13;;;;;;;10.10;5.05;;;;;;;1.58;56.29;94705.06;5030582;28;20045;-52
2022/04/17 03:18:39;;;;;;;8.10;4.93;;;;;;;1.60;56.78;94714.41;5011948;28;20033;-48
2022/04/17 03:21:06;;;;;;;11.43;6.05;;;;;;;1.63;56.83;94701.34;5030546;28;20049;-48
2022/04/17 03:23:34;;;;;;;8.63;5.10;;;;;;;1.58;56.96;94697.72;5030182;28;20048;-45
2022/04/17 03:26:01;;;;;;;8.18;4.80;;;;;;;1.60;56.82;94694.69;5030411;28;20075;-45
2022/04/17 03:28:27;;;;;;;8.35;4.82;;;;;;;1.52;56.88;94701.00;5030180;28;20433;-47
2022/04/17 03:30:54;;;;;;;9.63;4.82;;;;;;;1.58;56.86;94697.72;5012988;28;20063;-46
2022/04/17 03:33:21;;;;;;;8.15;4.90;;;;;;;1.54;57.17;94702.25;5028363;28;20110;-46
2022/04/17 03:35:48;;;;;;;8.10;4.70;;;;;;;1.45;57.61;94693.47;5030395;28;20041;-51
2022/04/17 03:38:15;;;;;;;9.20;5.60;;;;;;;1.46;57.72;94705.84;5029843;28;20053;-47
2022/04/17 03:40:41;;;;;;;9.07;5.15;;;;;;;1.51;57.08;94684.00;5030189;28;20041;-45
2022/04/17 03:43:08;;;;;;;8.57;4.90;;;;;;;1.53;57.04;94691.75;5030415;28;20056;-45
2022/04/17 03:45:35;;;;;;;7.80;4.70;;;;;;;1.56;56.93;94683.75;5029758;28;20061;-46
2022/04/17 03:48:01;;;;;;;8.67;4.67;;;;;;;1.50;57.35;94682.41;5021119;28;20049;-45
2022/04/17 03:50:28;;;;;;;9.00;4.78;;;;;;;1.38;58.21;94682.41;5025737;28;20041;-52
2022/04/17 03:52:55;;;;;;;8.85;5.10;;;;;;;1.39;57.38;94684.78;5030765;28;20037;-46
2022/04/17 03:55:22;;;;;;;8.88;4.65;;;;;;;1.49;57.70;94678.16;5033467;28;20375;-47
2022/04/17 03:57:49;;;;;;;9.38;5.10;;;;;;;1.55;57.19;94673.28;5034111;28;20049;-49
2022/04/17 04:00:16;;;;;;;8.40;4.60;;;;;;;1.51;57.54;94675.88;5033647;28;20052;-46
2022/04/17 04:02:43;;;;;;;7.97;4.60;;;;;;;1.53;57.41;94686.34;5032405;28;20063;-49
2022/04/17 04:05:11;;;;;;;8.02;4.40;;;;;;;1.51;57.40;94677.78;5033969;28;20707;-48
2022/04/17 04:07:39;;;;;;;8.55;4.50;;;;;;;1.55;57.35;94678.69;5033367;28;20126;-47
2022/04/17 04:10:07;;;;;;;8.82;4.90;;;;;;;1.49;57.72;94669.22;5033864;28;20072;-47
2022/04/17 04:12:36;;;;;;;8.03;4.67;;;;;;;1.37;57.90;94678.16;5033685;28;20053;-49
2022/04/17 04:15:03;;;;;;;8.93;5.00;;;;;;;1.46;57.87;94661.78;5034096;28;20045;-46
2022/04/17 04:17:30;;;;;;;9.10;4.70;;;;;;;1.50;57.34;94670.81;5032109;28;20102;-45
2022/04/17 04:19:57;;;;;;;8.93;4.80;;;;;;;1.43;58.29;94659.75;5032435;28;20033;-47
2022/04/17 04:22:24;;;;;;;9.25;4.55;;;;;;;1.42;57.80;94671.72;5033379;28;20095;-46
2022/04/17 04:24:52;;;;;;;7.90;4.50;;;;;;;1.52;57.21;94672.03;5033586;28;20500;-50
2022/04/17 04:30:04;;;;;;;8.48;4.45;;;;;;;1.54;57.15;94677.91;5033693;28;20056;-53
2022/04/17 04:32:31;;;;;;;8.68;4.70;;;;;;;1.51;56.80;94665.06;5031797;28;20056;-45
2022/04/17 04:35:04;;;;;;;9.90;4.78;;;;;;;1.49;57.19;94670.03;5033691;28;20059;-48
2022/04/17 04:37:32;;;;;;;7.90;4.67;;;;;;;1.51;57.24;94670.47;5033051;28;20114;-54
2022/04/17 04:39:59;;;;;;;8.15;4.65;;;;;;;1.56;56.92;94670.22;5033383;28;20041;-50
2022/04/17 04:42:27;;;;;;;8.93;5.20;;;;;;;1.49;56.83;94670.03;5032879;28;20069;-52
2022/04/17 04:47:40;;;;;;;8.10;4.88;;;;;;;1.47;57.37;94677.69;5032936;28;20379;-46
2022/04/17 04:50:07;;;;;;;8.80;4.80;;;;;;;1.49;56.78;94678.16;5033259;28;20042;-46
2022/04/17 04:52:37;;;;;;;8.52;4.93;;;;;;;1.50;56.52;94677.00;5032565;28;20056;-48
2022/04/17 04:55:05;;;;;;;9.35;5.32;;;;;;;1.52;56.92;94663.16;5033145;28;20049;-46
2022/04/17 04:57:35;;;;;;;9.13;5.30;;;;;;;1.56;56.67;94661.34;5032749;28;20045;-47
2022/04/17 05:00:04;;;;;;;10.10;4.60;;;;;;;1.63;56.18;94668.88;5033069;28;20402;-47
2022/04/17 05:02:30;;;;;;;8.37;4.40;;;;;;;1.64;55.81;94667.75;5017327;28;20069;-46
2022/04/17 05:04:58;;;;;;;7.93;4.90;;;;;;;1.70;56.12;94667.19;5031226;28;20152;-46
2022/04/17 05:07:25;;;;;;;8.38;4.75;;;;;;;1.73;55.40;94665.69;5032435;28;20049;-46
2022/04/17 05:09:52;;;;;;;8.10;4.93;;;;;;;1.79;55.53;94664.34;5032781;28;20042;-50
2022/04/17 05:12:19;;;;;;;7.10;4.60;;;;;;;1.79;55.33;94673.25;5032395;28;20449;-51
2022/04/17 05:14:45;;;;;;;11.70;6.17;;;;;;;1.85;56.22;94662.19;5032875;28;20053;-47
2022/04/17 05:17:12;;;;;;;12.23;6.50;;;;;;;1.93;55.45;94659.38;5032695;28;20048;-46
2022/04/17 05:19:39;;;;;;;7.88;4.60;;;;;;;1.93;54.67;94658.56;5032025;28;20276;-46
2022/04/17 05:22:10;;;;;;;9.50;5.00;;;;;;;1.86;54.60;94663.78;5032786;28;20045;-46
2022/04/17 05:24:40;;;;;;;8.25;4.90;;;;;;;2.01;54.42;94671.16;5031829;28;20051;-45
2022/04/17 05:27:07;;;;;;;7.80;4.83;;;;;;;2.00;54.92;94661.50;5032698;28;20076;-46
2022/04/17 05:29:34;;;;;;;7.93;4.47;;;;;;;2.03;54.45;94660.00;5032095;28;20053;-46
2022/04/17 05:32:01;;;;;;;8.05;4.45;;;;;;;2.03;54.66;94665.44;5032107;28;20049;-48
2022/04/17 05:34:28;;;;;;;8.93;4.65;;;;;;;2.02;54.19;94669.28;5031931;28;20049;-46
2022/04/17 05:36:55;;;;;;;8.10;4.70;;;;;;;2.09;53.73;94672.19;5032529;28;20041;-47
2022/04/17 05:39:22;;;;;;;7.70;4.60;;;;;;;2.10;54.07;94685.38;5031806;28;20048;-49
2022/04/17 05:41:49;;;;;;;7.75;4.30;;;;;;;2.31;53.54;94682.47;5032230;28;20040;-47
2022/04/17 05:44:16;;;;;;;9.07;4.90;;;;;;;2.36;53.58;94682.25;5031883;28;20500;-47
2022/04/17 05:46:43;;;;;;;7.60;4.75;;;;;;;2.51;53.22;94679.94;5031988;28;20042;-50
2022/04/17 05:49:10;;;;;;;8.63;4.65;;;;;;;2.50;53.32;94692.69;5032205;28;20041;-51
2022/04/17 05:51:37;;;;;;;7.40;4.47;;;;;;;2.56;52.76;94685.13;5031757;28;20051;-50
2022/04/17 05:54:05;;;;;;;8.98;4.85;;;;;;;2.48;52.76;94686.06;5032025;28;20406;-52
2022/04/17 05:56:32;;;;;;;7.95;4.55;;;;;;;2.68;53.05;94684.28;5031480;28;20479;-48
2022/04/17 05:59:00;;;;;;;7.40;4.70;;;;;;;2.82;52.77;94690.09;5031681;28;20098;-52
2022/04/17 06:01:29;;;;;;;7.40;4.75;;;;;;;2.89;52.27;94673.22;5027551;28;20052;-49
2022/04/17 06:03:56;;;;;;;9.27;4.30;;;;;;;3.00;52.09;94672.34;5012025;28;20042;-55
2022/04/17 06:06:23;;;;;;;7.68;4.40;;;;;;;2.86;52.07;94680.13;5011516;28;20052;-47
2022/04/17 06:08:49;;;;;;;17.45;9.40;;;;;;;2.91;51.77;94670.94;5028708;28;20048;-49
2022/04/17 06:11:16;;;;;;;10.13;5.57;;;;;;;3.03;51.91;94668.16;5031188;28;20047;-52
2022/04/17 06:13:43;;;;;;;8.98;5.03;;;;;;;3.16;51.54;94677.78;5031761;28;20045;-50
2022/04/17 06:16:10;;;;;;;6.40;4.10;;;;;;;3.20;51.42;94677.88;5031334;28;20056;-46
2022/04/17 06:18:36;;;;;;;7.60;4.47;;;;;;;3.21;51.27;94679.44;5030967;28;20384;-48
2022/04/17 06:21:03;;;;;;;7.53;4.35;;;;;;;3.30;50.87;94679.25;5031196;28;20045;-48
2022/04/17 06:23:31;;;;;;;8.95;4.78;;;;;;;3.47;50.51;94678.13;5031127;28;20057;-47
2022/04/17 06:26:00;;;;;;;7.15;4.47;;;;;;;3.74;50.92;94676.44;5031398;28;20056;-51
2022/04/17 06:28:27;;;;;;;7.20;4.30;;;;;;;3.89;48.71;94685.69;5030641;28;20041;-46
2022/04/17 06:30:54;;;;;;;8.13;5.03;;;;;;;5.09;46.48;94687.69;5030155;28;20045;-46
2022/04/17 06:33:21;;;;;;;7.30;4.70;;;;;;;9.50;38.04;94670.13;5030830;28;20071;-52
2022/04/17 06:35:47;;;;;;;7.32;4.55;;;;;;;11.02;34.15;94656.91;5031392;28;20037;-51
2022/04/17 06:38:15;;;;;;;7.40;4.40;;;;;;;11.62;32.25;94663.22;5031162;28;20041;-47
2022/04/17 06:40:43;;;;;;;6.60;4.67;;;;;;;8.70;35.65;94678.50;5029056;28;20037;-49
2022/04/17 06:43:10;;;;;;;6.70;4.55;;;;;;;13.21;30.03;94657.69;5031108;28;20053;-51
2022/04/17 06:45:39;;;;;;;6.05;4.35;;;;;;;15.69;26.51;94643.72;5030753;28;20056;-50
2022/04/17 06:48:17;;;;;;;6.88;4.43;;;;;;;15.35;26.02;94660.69;5030930;28;20053;-49
2022/04/17 06:50:47;;;;;;;6.05;4.00;;;;;;;17.04;24.40;94648.25;5030033;28;20053;-51
2022/04/17 06:53:15;;;;;;;5.47;4.10;;;;;;;17.03;24.25;94647.47;5031054;28;20049;-48
2022/04/17 06:55:42;;;;;;;5.50;4.38;;;;;;;15.61;25.76;94642.31;5029722;28;21564;-49
2022/04/17 06:58:09;;;;;;;5.65;4.20;;;;;;;15.82;24.76;94634.78;5030836;28;20119;-51
2022/04/17 07:00:37;;;;;;;5.88;3.95;;;;;;;19.09;22.12;94632.09;5028496;28;20041;-49
2022/04/17 07:03:04;;;;;;;5.45;4.03;;;;;;;19.93;20.75;94624.97;5010635;28;20046;-48
2022/04/17 07:05:31;;;;;;;6.07;4.07;;;;;;;19.91;19.62;94628.22;5010450;28;20046;-52
2022/04/17 07:08:03;;;;;;;5.80;4.00;;;;;;;13.93;26.59;94641.66;5021789;28;20053;-46
2022/04/17 07:10:32;;;;;;;5.45;4.20;;;;;;;16.07;23.82;94639.69;5030068;28;20041;-46
2022/04/17 07:12:59;;;;;;;5.38;4.03;;;;;;;13.63;26.20;94650.78;5030451;28;20046;-51
2022/04/17 07:15:26;;;;;;;5.50;4.30;;;;;;;13.75;25.94;94655.72;5030189;28;20055;-49
2022/04/17 07:17:54;;;;;;;5.73;3.73;;;;;;;16.26;24.20;94649.91;5030259;28;20095;-52
2022/04/17 07:20:22;;;;;;;6.20;4.07;;;;;;;16.45;22.99;94650.97;5029675;28;20049;-48
2022/04/17 07:22:49;;;;;;;5.65;4.28;;;;;;;13.88;25.79;94644.09;5030410;28;20045;-52
2022/04/17 07:25:19;;;;;;;6.65;4.30;;;;;;;11.28;29.15;94664.59;5029770;28;20034;-51
2022/04/17 07:27:50;;;;;;;5.88;4.38;;;;;;;13.52;25.82;94645.44;5029749;28;20099;-48
2022/04/17 07:30:30;;;;;;;5.80;4.30;;;;;;;12.73;27.19;94640.16;5030080;28;20501;-49
2022/04/17 07:32:59;;;;;;;5.95;4.03;;;;;;;14.50;25.33;94633.56;5028937;28;20053;-50
2022/04/17 07:35:28;;;;;;;5.55;4.22;;;;;;;14.59;25.74;94633.81;5029925;28;20041;-51
2022/04/17 07:37:57;;;;;;;5.82;4.10;;;;;;;16.55;23.75;94635.28;5030556;28;20046;-49
2022/04/17 07:40:43;;;;;;;5.10;3.88;;;;;;;16.61;21.64;94622.47;5028376;28;20047;-47
2022/04/17 07:43:09;;;;;;;6.40;4.10;;;;;;;17.98;21.33;94619.25;5030253;28;20037;-50
2022/04/17 07:45:37;;;;;;;5.00;3.90;;;;;;;21.50;18.55;94614.66;5029661;28;20041;-48
2022/04/17 07:48:04;;;;;;;4.85;4.00;;;;;;;17.06;21.56;94621.63;5030111;28;20045;-50
2022/04/17 07:50:31;;;;;;;4.93;4.00;;;;;;;19.20;19.95;94606.69;5029336;28;20037;-47
2022/04/17 07:53:00;;;;;;;5.82;3.47;;;;;;;20.05;19.03;94607.34;5029933;28;20053;-50
2022/04/17 07:55:27;;;;;;;5.20;3.80;;;;;;;22.51;17.15;94607.03;5029352;28;20080;-50
2022/04/17 07:58:22;;;;;;;4.45;3.42;;;;;;;22.41;16.86;94602.75;5028841;28;20041;-47
2022/04/17 08:00:58;;;;;;;4.90;3.47;;;;;;;19.35;19.22;94604.13;5026671;28;20409;-49
2022/04/17 08:06:05;;;;;;;4.53;3.30;;;;;;;21.65;17.17;94586.84;5010348;28;20049;-54
2022/04/17 08:08:39;;;;;;;3.80;3.00;;;;;;;20.94;17.06;94588.84;5025339;28;20050;-49
2022/04/17 08:11:07;;;;;;;3.90;3.08;;;;;;;21.73;15.82;94587.25;5029850;28;20422;-50
2022/04/17 08:13:35;;;;;;;5.28;3.45;;;;;;;20.49;17.26;94592.41;5029271;28;20049;-49
2022/04/17 08:16:08;;;;;;;4.45;3.03;;;;;;;22.58;15.87;94591.88;5029884;28;20093;-48
2022/04/17 08:18:41;;;;;;;4.68;3.20;;;;;;;20.26;17.12;94599.34;5027534;28;20046;-51
2022/04/17 08:21:08;;;;;;;5.13;3.10;;;;;;;15.94;20.92;94598.88;5028382;28;20072;-50
2022/04/17 08:23:37;;;;;;;4.60;3.08;;;;;;;20.80;17.24;94585.91;5027927;28;20049;-49
2022/04/17 08:26:07;;;;;;;3.83;3.00;;;;;;;20.51;17.23;94587.91;5029638;28;20046;-50
2022/04/17 08:28:34;;;;;;;5.97;2.92;;;;;;;17.96;17.75;94588.38;5029074;28;20052;-52
2022/04/17 08:31:00;;;;;;;4.20;2.70;;;;;;;20.53;16.63;94577.06;5029890;28;20048;-49
2022/04/17 08:33:28;;;;;;;4.37;2.70;;;;;;;19.48;17.12;94574.19;5029303;28;20072;-49
2022/04/17 08:35:55;;;;;;;4.47;2.60;;;;;;;19.32;17.01;94566.84;5029747;28;20037;-48
2022/04/17 08:38:22;;;;;;;5.38;2.60;;;;;;;20.50;16.37;94566.84;5029027;28;20050;-51
2022/04/17 08:40:50;;;;;;;3.85;2.60;;;;;;;18.43;17.62;94559.78;5032648;28;20041;-47
2022/04/17 08:43:18;;;;;;;4.10;2.75;;;;;;;19.87;16.28;94562.75;5032541;28;20042;-50
2022/04/17 08:45:49;;;;;;;4.77;2.67;;;;;;;19.24;16.20;94545.34;5032962;28;20040;-50
2022/04/17 08:48:17;;;;;;;4.35;2.60;;;;;;;18.32;16.67;94560.16;5032712;28;20045;-53
2022/04/17 08:50:47;;;;;;;3.47;2.30;;;;;;;19.75;16.25;94558.84;5033153;28;20173;-48
2022/04/17 08:53:16;;;;;;;3.38;2.40;;;;;;;21.58;14.72;94569.63;5033156;28;20049;-53
2022/04/17 08:55:50;;;;;;;3.67;2.38;;;;;;;21.60;14.98;94555.97;5032306;28;20449;-50
2022/04/17 08:58:16;;;;;;;3.27;2.20;;;;;;;22.45;13.31;94553.00;5032522;28;20099;-53
2022/04/17 09:00:43;;;;;;;3.50;2.03;;;;;;;20.84;14.24;94545.44;5031791;28;20076;-52
2022/04/17 09:03:10;;;;;;;3.17;2.10;;;;;;;20.66;14.89;94551.06;5032953;28;20064;-46
2022/04/17 09:05:38;;;;;;;3.78;2.10;;;;;;;20.18;15.12;94540.34;5031006;28;20664;-48
2022/04/17 09:08:13;;;;;;;4.30;2.30;;;;;;;19.98;15.25;94531.66;5032906;28;20049;-51
2022/04/17 09:10:40;;;;;;;3.37;2.23;;;;;;;18.56;15.88;94540.25;5031444;28;20748;-54
2022/04/17 09:13:07;;;;;;;3.83;2.00;;;;;;;20.00;14.82;94541.13;5032909;28;20045;-49
2022/04/17 09:15:36;;;;;;;4.32;2.30;;;;;;;19.23;15.14;94533.41;5032381;28;20049;-53
2022/04/17 09:18:07;;;;;;;3.03;1.90;;;;;;;22.62;13.31;94533.75;5032792;28;20111;-52
2022/04/17 09:20:45;;;;;;;3.17;2.03;;;;;;;21.95;12.61;94522.72;5032565;28;20393;-49
2022/04/17 09:23:12;;;;;;;4.20;1.90;;;;;;;21.96;12.31;94520.72;5015321;28;20056;-49
2022/04/17 09:25:38;;;;;;;3.78;1.90;;;;;;;22.06;12.65;94511.78;5030752;28;20049;-50
2022/04/17 09:28:08;;;;;;;4.80;2.10;;;;;;;20.90;13.26;94514.91;5032620;28;20063;-50
2022/04/17 09:30:40;;;;;;;3.03;2.05;;;;;;;17.30;16.32;94527.00;5031828;28;20046;-53
2022/04/17 09:33:09;;;;;;;2.95;1.80;;;;;;;19.18;14.74;94520.09;5032294;28;20045;-51
2022/04/17 09:35:36;;;;;;;3.40;1.90;;;;;;;21.09;14.19;94515.66;5030754;28;20046;-53
2022/04/17 09:38:05;;;;;;;3.63;1.85;;;;;;;19.30;14.77;94518.47;5032123;28;20056;-52
2022/04/17 09:40:33;;;;;;;2.60;1.67;;;;;;;19.72;13.53;94524.34;5031773;28;20119;-50
2022/04/17 09:43:17;;;;;;;4.03;2.00;;;;;;;17.70;15.03;94534.84;5029636;28;20512;-53
2022/04/17 09:46:04;;;;;;;3.60;1.80;;;;;;;20.07;14.08;94514.94;5011552;28;20732;-49
2022/04/17 09:48:37;;;;;;;4.67;1.80;;;;;;;18.69;14.85;94515.97;5011962;28;20050;-51
2022/04/17 09:51:23;;;;;;;4.80;1.90;;;;;;;19.44;14.77;94517.88;5018728;28;20132;-52
2022/04/17 09:54:05;;;;;;;4.68;1.90;;;;;;;18.59;14.72;94531.00;5025542;28;20053;-54
2022/04/17 09:56:33;;;;;;;4.30;1.73;;;;;;;21.22;12.39;94505.06;5011726;28;20269;-51
2022/04/17 09:59:13;;;;;;;3.13;1.75;;;;;;;19.25;13.80;94502.34;5011827;28;20046;-52
2022/04/17 10:01:40;;;;;;;3.97;1.90;;;;;;;17.64;14.85;94517.97;5011198;28;20330;-52
2022/04/17 10:04:07;;;;;;;4.07;2.10;;;;;;;18.31;14.93;94502.25;5012062;28;20095;-51
2022/04/17 10:06:36;;;;;;;4.13;1.95;;;;;;;21.09;13.73;94498.91;5011624;28;20049;-50
2022/04/17 10:09:04;;;;;;;2.92;1.80;;;;;;;24.71;11.02;94495.63;5012193;28;20058;-48
2022/04/17 10:11:32;;;;;;;3.20;2.00;;;;;;;19.78;14.27;94496.66;5011381;28;20052;-51
2022/04/17 10:13:59;;;;;;;2.97;1.90;;;;;;;24.40;12.16;94487.84;5011881;28;20056;-48
2022/04/17 10:16:31;;;;;;;4.38;1.90;;;;;;;21.00;13.97;94480.16;5010284;28;20054;-51
2022/04/17 10:19:04;;;;;;;3.65;1.95;;;;;;;22.11;13.17;94479.59;5011616;28;20483;-48
2022/04/17 10:21:35;;;;;;;3.05;1.88;;;;;;;23.70;11.90;94472.66;5011054;28;20046;-55
2022/04/17 10:24:04;;;;;;;3.35;2.10;;;;;;;19.44;15.14;94478.16;5010225;28;20060;-48
2022/04/17 10:26:38;;;;;;;4.07;1.87;;;;;;;20.85;13.23;94480.06;5009888;28;20050;-46
2022/04/17 10:29:09;;;;;;;3.95;1.88;;;;;;;25.10;10.49;94456.66;5022853;28;20051;-47
2022/04/17 10:32:26;;;;;;;3.35;1.60;;;;;;;27.42;9.22;94460.44;5031157;28;20049;-48
2022/04/17 10:35:14;;;;;;;2.83;1.60;;;;;;;23.87;11.63;94456.13;5028748;28;20655;-46
2022/04/17 10:38:06;;;;;;;2.90;1.58;;;;;;;19.92;10.42;94445.91;5030480;28;20181;-50
2022/04/17 10:40:33;;;;;;;2.53;1.60;;;;;;;22.76;12.33;94439.88;5030540;28;20049;-52
2022/04/17 10:43:01;;;;;;;3.33;1.85;;;;;;;21.43;12.63;94435.50;5027989;28;20045;-51
2022/04/17 10:45:31;;;;;;;3.22;1.73;;;;;;;17.00;15.26;94453.47;5009580;28;20057;-50
2022/04/17 10:48:08;;;;;;;3.75;1.95;;;;;;;17.09;15.70;94454.34;5011128;28;20046;-52
2022/04/17 10:50:50;;;;;;;3.90;2.22;;;;;;;19.68;13.24;94434.56;5010661;28;20053;-54
2022/04/17 10:53:30;;;;;;;3.20;1.83;;;;;;;19.05;15.07;94436.72;5010522;28;20414;-48
2022/04/17 10:56:08;;;;;;;3.25;2.00;;;;;;;15.95;16.91;94447.41;5011114;28;20038;-53
2022/04/17 10:58:35;;;;;;;2.90;1.70;;;;;;;20.81;13.72;94426.44;5010666;28;20053;-49
2022/04/17 11:01:02;;;;;;;3.30;1.80;;;;;;;21.59;13.11;94425.94;5009924;28;20049;-49
2022/04/17 11:03:28;;;;;;;3.65;1.65;;;;;;;20.67;13.40;94427.88;5009860;28;20093;-49
2022/04/17 11:06:12;;;;;;;2.90;1.70;;;;;;;16.20;15.53;94435.63;5010636;28;20103;-52
2022/04/17 11:08:47;;;;;;;2.90;1.50;;;;;;;17.48;14.44;94421.00;5026904;28;20046;-52
2022/04/17 11:11:14;;;;;;;2.97;1.70;;;;;;;15.40;15.78;94422.34;5030727;28;20050;-51
2022/04/17 11:14:04;;;;;;;2.88;1.50;;;;;;;16.41;15.09;94422.38;5029563;28;20409;-48
2022/04/17 11:16:37;;;;;;;3.30;1.67;;;;;;;16.53;15.35;94408.53;5030055;28;20106;-50
2022/04/17 11:19:06;;;;;;;2.80;1.30;;;;;;;15.63;16.81;94413.03;5028770;28;20050;-51
2022/04/17 11:21:38;;;;;;;2.97;1.50;;;;;;;15.69;17.47;94416.03;5029924;28;20127;-53
2022/04/17 11:24:04;;;;;;;2.50;1.40;;;;;;;15.58;17.66;94408.03;5030638;28;20060;-50
2022/04/17 11:26:53;;;;;;;3.05;1.70;;;;;;;13.58;19.19;94414.09;5029704;28;20384;-46
2022/04/17 11:29:54;;;;;;;3.90;1.70;;;;;;;14.91;18.92;94414.06;5029778;28;20051;-47
2022/04/17 11:32:25;;;;;;;3.43;1.70;;;;;;;15.42;19.13;94405.31;5029871;28;20394;-52
2022/04/17 11:34:55;;;;;;;3.22;1.80;;;;;;;14.10;20.22;94401.66;5028813;28;20045;-50
2022/04/17 11:37:29;;;;;;;4.07;1.67;;;;;;;15.28;18.56;94404.47;5029823;28;20046;-50
2022/04/17 11:40:19;;;;;;;2.58;1.33;;;;;;;14.23;18.40;94405.31;5030332;28;20045;-47
2022/04/17 11:42:51;;;;;;;2.78;1.50;;;;;;;13.85;18.75;94402.94;5023898;28;21771;-47
2022/04/17 11:45:28;;;;;;;2.83;1.70;;;;;;;14.75;19.38;94399.03;5022520;28;20049;-49
2022/04/17 11:47:56;;;;;;;3.95;2.08;;;;;;;13.17;20.65;94399.44;5030235;28;20042;-54
2022/04/17 11:50:27;;;;;;;3.58;1.70;;;;;;;13.95;19.94;94392.91;5029755;28;20054;-47
2022/04/17 11:53:02;;;;;;;2.78;1.48;;;;;;;12.59;19.63;94407.84;5030385;28;20052;-49
2022/04/17 11:55:32;;;;;;;3.13;1.70;;;;;;;13.90;21.13;94391.38;5029695;28;20046;-50
2022/04/17 11:57:59;;;;;;;3.50;1.97;;;;;;;13.22;20.90;94413.94;5030096;28;20037;-49
2022/04/17 12:00:27;;;;;;;2.95;1.50;;;;;;;12.83;20.11;94391.34;5029371;28;20076;-57
2022/04/17 12:03:02;;;;;;;2.67;1.55;;;;;;;13.79;19.79;94394.38;5030069;28;20041;-47